KSET

St Charles County Smartt Airport

St Charles, Missouri, USA
METAR KSET 110454Z AUTO 00000KT 5SM BR CLR M04/M06 A3027 RMK AO2 SLP253 T10441056
Observed Flight Rules
Dec-11 @ 04:54 UTC (30 minutes ago) Marginal Visual Flight Rules
Visibility Clouds Conditions
5 miles
  • Clear skies
  • Mist
Temperatures Readings
Current -4°C / 25°F
Dewpoint -6°C / 21°F
Humidity 86%
Altimeter 30.27" Hg
Pressure 1025.3 hPa
Elevation 134
METAR KSET 110454Z AUTO 00000KT 5SM BR CLR M04/M06 A3027 RMK AO2 SLP253 T10441056
Observed Flight Rules
Dec-11 @ 04:54 UTC
(30 minutes ago)
MVFR
Clouds
  • Clear skies
Conditions
  • Mist
Temperature Dewpoint
-4°C / 25°F -6°C / 21°F
Humidity Altimeter Pressure
86% 30.27" Hg 1025.3 hPa